Time;durP1;ratioP1;P1;durP2;ratioP2;P2;SDS_P1;SDS_P2;PMS_P1;PMS_P2;Temp;Humidity;BMP_temperature;BMP_pressure;BME280_temperature;BME280_humidity;BME280_pressure;Samples;Min_cycle;Max_cycle;Signal;HPM_P1;HPM_P2
2023/05/07 00:04:03;;;;;;;18.93;9.20;;;;;;;7.99;100.00;101392.86;4994151;57;1141022;-78
2023/05/07 00:09:09;;;;;;;18.47;8.27;;;;;;;7.97;100.00;101396.89;4979250;57;1141117;-78
2023/05/07 00:14:14;;;;;;;18.43;8.97;;;;;;;7.97;100.00;101396.04;4903214;58;1141237;-76
2023/05/07 00:19:20;;;;;;;15.30;8.30;;;;;;;8.02;100.00;101384.80;4905129;57;1140797;-77
2023/05/07 00:24:26;;;;;;;14.47;8.63;;;;;;;8.06;100.00;101388.52;4829425;57;1140964;-76
2023/05/07 00:29:32;;;;;;;19.20;10.47;;;;;;;8.03;100.00;101390.45;4979657;56;1140954;-76
2023/05/07 00:34:39;;;;;;;13.20;7.50;;;;;;;8.00;100.00;101387.52;4845538;58;1143040;-78
2023/05/07 00:39:45;;;;;;;14.60;8.07;;;;;;;7.95;100.00;101384.73;4993754;56;1140968;-76
2023/05/07 00:44:50;;;;;;;14.87;7.87;;;;;;;7.95;100.00;101393.95;4947165;57;1140939;-76
2023/05/07 00:49:56;;;;;;;18.50;8.80;;;;;;;7.95;100.00;101393.48;4979822;57;1140818;-78
2023/05/07 00:55:06;;;;;;;15.25;9.28;;;;;;;7.93;100.00;101401.11;5039276;57;1140840;-78
2023/05/07 01:00:12;;;;;;;14.23;8.23;;;;;;;7.88;100.00;101409.23;5012579;57;1140932;-76
2023/05/07 01:05:20;;;;;;;27.37;11.63;;;;;;;7.82;100.00;101409.55;5066499;56;1140718;-76
2023/05/07 01:10:26;;;;;;;16.90;8.18;;;;;;;7.82;100.00;101409.55;5086258;56;1143117;-77
2023/05/07 01:15:32;;;;;;;13.53;7.93;;;;;;;7.78;100.00;101409.80;5051423;55;1141062;-76
2023/05/07 01:20:38;;;;;;;17.37;8.00;;;;;;;7.68;100.00;101408.94;5067039;55;1140996;-78
2023/05/07 01:25:44;;;;;;;10.27;7.40;;;;;;;7.53;100.00;101401.83;5066972;55;1140975;-75
2023/05/07 01:30:56;;;;;;;13.90;8.70;;;;;;;7.49;100.00;101416.06;5086464;56;1140756;-76
2023/05/07 01:36:06;;;;;;;14.17;8.73;;;;;;;7.43;100.00;101419.48;5066978;56;1140891;-75
2023/05/07 01:41:13;;;;;;;17.50;9.23;;;;;;;7.39;100.00;101423.59;5037615;56;1140850;-76
2023/05/07 01:46:19;;;;;;;17.70;8.30;;;;;;;7.33;100.00;101425.69;5007358;57;1140936;-78
2023/05/07 01:51:26;;;;;;;18.07;9.20;;;;;;;7.23;100.00;101424.41;4984140;57;1141059;-76
2023/05/07 01:56:31;;;;;;;14.67;9.00;;;;;;;7.16;100.00;101429.14;5043400;56;1140943;-77
2023/05/07 02:01:37;;;;;;;11.00;7.73;;;;;;;7.08;100.00;101435.69;5068587;56;1141069;-77
2023/05/07 02:06:43;;;;;;;15.30;8.80;;;;;;;7.01;100.00;101436.00;5030405;56;1140877;-75
2023/05/07 02:11:50;;;;;;;12.83;9.43;;;;;;;6.93;100.00;101439.45;5066960;55;1140765;-77
2023/05/07 02:16:57;;;;;;;14.63;8.73;;;;;;;6.84;100.00;101439.89;5052216;55;1140846;-79
2023/05/07 02:22:02;;;;;;;14.43;8.70;;;;;;;6.69;100.00;101434.05;5086689;55;1140857;-76
2023/05/07 02:27:08;;;;;;;15.48;8.73;;;;;;;6.69;100.00;101434.05;5013002;55;1140835;-75
2023/05/07 02:32:14;;;;;;;15.10;8.95;;;;;;;6.74;100.00;101440.37;5066515;55;1140768;-78
2023/05/07 02:37:20;;;;;;;13.67;8.20;;;;;;;6.77;100.00;101440.24;5086157;56;1140718;-75
2023/05/07 02:42:26;;;;;;;18.23;8.13;;;;;;;6.83;100.00;101454.42;5055656;56;1140829;-78
2023/05/07 02:47:31;;;;;;;16.00;9.53;;;;;;;6.83;100.00;101454.42;4983984;57;1140831;-75
2023/05/07 02:52:39;;;;;;;18.43;9.13;;;;;;;6.81;100.00;101451.02;4984499;57;1138867;-77
2023/05/07 02:57:44;;;;;;;16.20;9.13;;;;;;;6.79;100.00;101444.51;5083043;56;1141197;-75
2023/05/07 03:02:50;;;;;;;14.20;8.97;;;;;;;6.77;100.00;101441.09;5065898;55;1141024;-77
2023/05/07 03:07:56;;;;;;;13.80;7.93;;;;;;;6.76;100.00;101438.53;5044396;55;1246890;-78
2023/05/07 03:13:02;;;;;;;24.30;10.20;;;;;;;6.75;100.00;101435.52;5086780;54;1140787;-78
2023/05/07 03:18:07;;;;;;;16.23;8.57;;;;;;;6.72;100.00;101441.80;5050881;55;1140747;-77
2023/05/07 03:23:13;;;;;;;12.00;7.23;;;;;;;6.69;100.00;101448.50;5012463;56;1140776;-78
2023/05/07 03:28:19;;;;;;;16.63;8.63;;;;;;;6.68;100.00;101457.31;5085751;56;1140814;-76
2023/05/07 03:33:35;;;;;;;14.40;8.20;;;;;;;6.77;100.00;101462.12;5065791;56;1140878;-77
2023/05/07 03:38:41;;;;;;;14.20;8.67;;;;;;;6.75;100.00;101468.38;5066335;56;1140812;-78
2023/05/07 03:43:47;;;;;;;14.33;7.97;;;;;;;6.72;100.00;101471.17;5034003;57;1138901;-76
2023/05/07 03:48:53;;;;;;;17.07;7.80;;;;;;;6.74;100.00;101467.52;5003107;57;1140804;-76
2023/05/07 03:53:59;;;;;;;17.03;8.50;;;;;;;6.78;100.00;101467.78;4989425;57;1140815;-77
2023/05/07 03:59:05;;;;;;;13.93;7.53;;;;;;;6.76;100.00;101468.31;5066832;55;1140883;-76
2023/05/07 04:04:11;;;;;;;11.97;7.60;;;;;;;6.76;100.00;101475.34;5086650;55;1138660;-77
2023/05/07 04:09:17;;;;;;;25.73;9.83;;;;;;;6.73;100.00;101482.05;5066436;55;1140837;-76
2023/05/07 04:14:23;;;;;;;14.00;7.77;;;;;;;6.73;100.00;101496.51;5043793;55;1141099;-78
2023/05/07 04:19:30;;;;;;;10.20;7.13;;;;;;;6.79;100.00;101498.41;5071814;56;1140836;-77
2023/05/07 04:24:35;;;;;;;8.95;5.95;;;;;;;6.83;100.00;101501.75;5012854;56;1140737;-77
2023/05/07 04:29:42;;;;;;;9.10;6.67;;;;;;;6.87;100.00;101502.87;5066986;56;1138626;-76
2023/05/07 04:34:49;;;;;;;19.07;7.27;;;;;;;6.93;100.00;101514.86;5013379;56;1138776;-78
2023/05/07 04:39:56;;;;;;;11.53;7.12;;;;;;;6.97;100.00;101523.00;5095431;56;1140813;-79
2023/05/07 04:45:03;;;;;;;12.58;6.28;;;;;;;7.01;100.00;101521.48;4988360;57;1141225;-77
2023/05/07 04:50:10;;;;;;;19.20;7.28;;;;;;;7.08;100.00;101523.34;5010791;57;1141153;-75
2023/05/07 04:55:17;;;;;;;11.90;6.33;;;;;;;7.15;100.00;101537.93;5047629;57;1140913;-78
2023/05/07 05:00:23;;;;;;;9.43;5.90;;;;;;;7.22;100.00;101543.27;4999620;56;1141059;-78
2023/05/07 05:05:29;;;;;;;11.53;7.00;;;;;;;7.29;100.00;101542.08;4899520;58;1138901;-76
2023/05/07 05:10:36;;;;;;;16.17;4.90;;;;;;;7.37;100.00;101549.13;5011004;56;1140877;-76
2023/05/07 05:15:42;;;;;;;12.13;5.30;;;;;;;7.50;100.00;101557.74;4886382;58;1140849;-77
2023/05/07 05:20:47;;;;;;;11.47;5.40;;;;;;;7.66;100.00;101561.34;4899552;58;1141051;-75
2023/05/07 05:25:59;;;;;;;7.07;4.80;;;;;;;7.83;100.00;101562.68;4918795;58;1140905;-77
2023/05/07 05:31:07;;;;;;;9.83;5.07;;;;;;;7.98;100.00;101560.60;4900414;58;1138746;-76
2023/05/07 05:36:14;;;;;;;11.10;5.87;;;;;;;8.15;100.00;101576.02;4899184;58;1138755;-78
2023/05/07 05:41:20;;;;;;;8.87;4.00;;;;;;;8.24;100.00;101579.53;4918434;57;1140992;-77
2023/05/07 05:46:26;;;;;;;10.27;4.63;;;;;;;8.37;100.00;101576.22;4905511;57;1138931;-77
2023/05/07 05:51:32;;;;;;;8.30;4.67;;;;;;;8.53;100.00;101582.87;4899638;58;1140907;-78
2023/05/07 05:56:39;;;;;;;10.75;4.37;;;;;;;8.72;100.00;101590.17;4886204;58;1138869;-79
2023/05/07 06:01:45;;;;;;;7.93;4.40;;;;;;;8.80;100.00;101591.11;4919029;58;1141181;-76
2023/05/07 06:06:51;;;;;;;7.03;4.53;;;;;;;8.96;100.00;101591.99;4899234;58;1138741;-79
2023/05/07 06:11:58;;;;;;;5.60;3.83;;;;;;;9.14;100.00;101583.55;4843355;58;1139052;-77
2023/05/07 06:17:04;;;;;;;7.58;3.95;;;;;;;9.35;100.00;101589.42;4863079;59;1138948;-76
2023/05/07 06:22:10;;;;;;;6.87;4.10;;;;;;;9.49;100.00;101593.46;4980013;56;1138797;-79
2023/05/07 06:27:16;;;;;;;7.90;3.43;;;;;;;9.64;100.00;101592.59;4979722;56;1138953;-79
2023/05/07 06:32:23;;;;;;;4.83;3.20;;;;;;;9.84;100.00;101602.89;4975774;58;1138847;-79
2023/05/07 06:37:29;;;;;;;5.00;2.98;;;;;;;10.04;100.00;101598.26;4958443;57;1138706;-77
2023/05/07 06:42:38;;;;;;;4.13;2.60;;;;;;;10.15;100.00;101606.41;4966572;57;1140791;-79
2023/05/07 06:47:45;;;;;;;3.73;2.57;;;;;;;10.40;100.00;101600.55;4899892;58;1150458;-79
2023/05/07 06:52:51;;;;;;;8.20;4.03;;;;;;;10.40;100.00;101600.55;4976081;58;1140820;-74
2023/05/07 06:58:00;;;;;;;5.23;3.23;;;;;;;10.52;100.00;101602.01;4889699;58;1140809;-80
2023/05/07 07:03:04;;;;;;;5.83;3.20;;;;;;;10.76;100.00;101606.27;4895659;58;1140860;-78
2023/05/07 07:08:12;;;;;;;4.77;2.73;;;;;;;10.76;100.00;101606.27;5010310;57;1140908;-77
2023/05/07 07:13:17;;;;;;;3.63;2.70;;;;;;;10.90;100.00;101607.59;4951315;57;1141015;-78
2023/05/07 07:18:24;;;;;;;4.00;3.30;;;;;;;10.93;100.00;101614.50;4946073;57;1140788;-77
2023/05/07 07:23:30;;;;;;;7.80;2.93;;;;;;;10.97;100.00;101620.00;4998762;57;1140864;-78
2023/05/07 07:28:36;;;;;;;3.27;2.97;;;;;;;10.99;100.00;101621.23;4979039;58;1141071;-74
2023/05/07 07:33:42;;;;;;;5.87;2.47;;;;;;;10.92;100.00;101629.53;4962600;58;1140856;-76
2023/05/07 07:38:47;;;;;;;3.33;2.60;;;;;;;11.09;100.00;101628.50;4921870;57;1141222;-76
2023/05/07 07:43:54;;;;;;;4.27;3.03;;;;;;;11.13;100.00;101633.98;4956399;56;1140807;-77
2023/05/07 07:49:00;;;;;;;4.63;2.70;;;;;;;11.20;100.00;101636.61;4958368;57;1140861;-76
2023/05/07 07:54:06;;;;;;;5.10;3.27;;;;;;;11.37;100.00;101642.18;4980061;57;1140769;-75
2023/05/07 07:59:14;;;;;;;8.90;3.72;;;;;;;11.57;100.00;101639.60;4999749;57;1140913;-73
2023/05/07 08:04:20;;;;;;;3.67;2.77;;;;;;;11.86;100.00;101634.63;5062210;56;1140857;-74
2023/05/07 08:09:25;;;;;;;6.00;2.90;;;;;;;12.06;100.00;101639.11;5076600;56;1141222;-76
2023/05/07 08:14:32;;;;;;;3.02;2.50;;;;;;;12.24;100.00;101636.06;5082175;56;1140884;-76
2023/05/07 08:19:38;;;;;;;3.00;2.70;;;;;;;12.50;100.00;101644.09;4878649;58;1140782;-75
2023/05/07 08:24:45;;;;;;;6.63;3.43;;;;;;;12.53;100.00;101642.53;4878690;59;1141089;-72
2023/05/07 08:29:51;;;;;;;7.53;3.00;;;;;;;12.46;100.00;101647.42;4919447;57;1141058;-75
2023/05/07 08:34:58;;;;;;;4.33;2.57;;;;;;;12.38;100.00;101651.53;4899863;58;1141032;-74
2023/05/07 08:40:04;;;;;;;7.00;2.83;;;;;;;12.16;100.00;101660.93;4900489;57;1140913;-76
2023/05/07 08:45:12;;;;;;;4.28;2.40;;;;;;;11.95;100.00;101664.98;4925921;58;1141106;-73
2023/05/07 08:50:19;;;;;;;2.83;2.63;;;;;;;11.81;100.00;101669.84;4899771;58;1140741;-75
2023/05/07 08:55:26;;;;;;;4.08;2.55;;;;;;;11.83;100.00;101665.30;4938049;57;1140751;-74
2023/05/07 09:00:33;;;;;;;1.97;1.77;;;;;;;11.91;100.00;101669.66;4998782;57;1141012;-77
2023/05/07 09:05:39;;;;;;;2.00;1.90;;;;;;;11.90;100.00;101673.25;4979894;57;1140974;-76
2023/05/07 09:10:46;;;;;;;4.80;1.92;;;;;;;11.80;100.00;101680.08;4902830;58;1140878;-75
2023/05/07 09:15:52;;;;;;;2.10;1.90;;;;;;;11.73;100.00;101672.59;5062620;56;1141005;-74
2023/05/07 09:20:58;;;;;;;4.70;2.47;;;;;;;11.68;100.00;101676.86;5066670;56;1140901;-74
2023/05/07 09:26:07;;;;;;;4.20;2.80;;;;;;;11.66;100.00;101689.35;5067258;55;1141006;-75
2023/05/07 09:31:12;;;;;;;4.93;4.27;;;;;;;11.92;100.00;101682.41;5086853;56;1140890;-75
2023/05/07 09:36:19;;;;;;;5.37;3.52;;;;;;;12.14;100.00;101689.35;5067016;55;1140931;-75
2023/05/07 09:41:25;;;;;;;4.97;2.57;;;;;;;12.20;100.00;101684.13;5013031;55;1140816;-74
2023/05/07 09:46:35;;;;;;;7.60;2.70;;;;;;;12.28;100.00;101681.81;5086012;56;1140849;-76
2023/05/07 09:51:51;;;;;;;5.97;2.27;;;;;;;12.25;100.00;101700.09;5066871;55;1140791;-76
2023/05/07 09:57:02;;;;;;;3.23;2.90;;;;;;;12.28;100.00;101690.62;5065124;55;1140802;-74
2023/05/07 10:02:10;;;;;;;3.13;2.23;;;;;;;12.24;100.00;101696.22;5077874;55;1140953;-78
2023/05/07 10:07:19;;;;;;;8.88;5.05;;;;;;;12.27;100.00;101706.16;5060743;56;1140881;-76
2023/05/07 10:12:26;;;;;;;3.53;2.53;;;;;;;12.43;100.00;101710.45;5082108;56;1140844;-77
2023/05/07 10:17:33;;;;;;;4.17;2.57;;;;;;;12.43;100.00;101706.00;5051836;56;1140764;-76
2023/05/07 10:22:46;;;;;;;4.97;2.80;;;;;;;12.41;100.00;101707.05;4951126;57;1140822;-75
2023/05/07 10:27:56;;;;;;;3.13;2.37;;;;;;;12.61;100.00;101707.91;4947764;57;1140825;-75
2023/05/07 10:33:08;;;;;;;2.30;1.50;;;;;;;12.82;100.00;101707.79;4970227;57;1140900;-75
2023/05/07 10:38:15;;;;;;;9.75;2.40;;;;;;;12.79;100.00;101702.69;4946623;57;1140909;-79
2023/05/07 10:43:21;;;;;;;5.13;2.27;;;;;;;12.79;100.00;101707.14;5032314;56;1140843;-76
2023/05/07 10:48:29;;;;;;;2.43;1.93;;;;;;;12.83;100.00;101708.64;5052406;56;1140901;-78
2023/05/07 10:53:40;;;;;;;1.63;1.53;;;;;;;12.77;100.00;101717.01;5027289;56;1140842;-78
2023/05/07 10:58:53;;;;;;;1.90;1.80;;;;;;;12.67;100.00;101714.14;5008577;57;1141021;-76
2023/05/07 11:04:18;;;;;;;6.50;3.03;;;;;;;12.62;100.00;101717.09;5040520;56;1140938;-76
2023/05/07 11:09:25;;;;;;;9.10;5.50;;;;;;;12.55;100.00;101720.23;5032588;56;1140943;-80
2023/05/07 11:14:46;;;;;;;9.90;5.33;;;;;;;12.53;100.00;101728.78;5032572;56;1140887;-77
2023/05/07 11:19:56;;;;;;;4.93;2.70;;;;;;;12.50;100.00;101724.55;4829409;58;1140947;-76
2023/05/07 11:25:09;;;;;;;4.40;3.47;;;;;;;12.53;100.00;101735.41;4875501;58;1140973;-79
2023/05/07 11:30:21;;;;;;;6.15;3.00;;;;;;;12.56;100.00;101733.41;4872798;58;1140967;-81
2023/05/07 11:35:27;;;;;;;2.87;2.67;;;;;;;12.59;100.00;101735.02;5031691;57;1140767;-78
2023/05/07 11:40:33;;;;;;;7.17;4.27;;;;;;;12.57;100.00;101739.09;4965077;57;1140826;-77
2023/05/07 11:45:39;;;;;;;10.97;6.17;;;;;;;12.54;100.00;101738.44;4947272;57;1140885;-77
2023/05/07 11:51:02;;;;;;;3.40;2.60;;;;;;;12.57;100.00;101739.09;4947576;57;1142953;-78
2023/05/07 11:56:09;;;;;;;;;;;;;;;12.69;100.00;101730.78;5034393;56;1141217;-75
2023/05/07 12:01:16;;;;;;;14.38;7.70;;;;;;;12.78;100.00;101734.16;5069647;57;978226;-75
2023/05/07 12:06:21;;;;;;;20.40;8.70;;;;;;;12.96;100.00;101732.92;5033848;55;1140873;-80
2023/05/07 12:11:27;;;;;;;5.40;3.23;;;;;;;13.32;100.00;101737.99;5033352;55;1142854;-76
2023/05/07 12:16:33;;;;;;;3.27;2.67;;;;;;;13.40;100.00;101738.80;5042650;56;1140994;-76
2023/05/07 12:21:39;;;;;;;11.40;5.53;;;;;;;13.37;100.00;101743.84;5013891;56;1141006;-78
2023/05/07 12:26:45;;;;;;;8.27;6.40;;;;;;;13.28;100.00;101740.04;5013481;57;1143004;-82
2023/05/07 12:31:52;;;;;;;11.40;4.87;;;;;;;13.36;100.00;101739.48;4988018;56;1140829;-74
2023/05/07 12:36:58;;;;;;;9.23;3.23;;;;;;;13.40;100.00;101734.81;4955837;57;1142907;-76
2023/05/07 12:42:04;;;;;;;3.80;3.22;;;;;;;13.35;100.00;101743.10;4977813;56;1147948;-78
2023/05/07 12:47:10;;;;;;;11.38;7.87;;;;;;;13.35;100.00;101741.77;4931465;57;1140893;-76
2023/05/07 12:52:16;;;;;;;4.27;2.73;;;;;;;13.63;100.00;101728.23;4947704;56;1142952;-78
2023/05/07 12:57:21;;;;;;;3.35;2.55;;;;;;;13.87;100.00;101732.30;4932339;58;1140941;-77
2023/05/07 13:02:35;;;;;;;2.40;2.20;;;;;;;13.77;99.25;101728.58;4928929;58;1140893;-77
2023/05/07 13:07:41;;;;;;;2.40;2.20;;;;;;;13.65;99.85;101730.31;4919968;58;1138949;-79
2023/05/07 13:12:47;;;;;;;17.27;7.20;;;;;;;13.85;96.94;101722.24;4952000;58;1138709;-76
2023/05/07 13:17:52;;;;;;;4.30;2.13;;;;;;;14.22;99.39;101711.08;4918599;58;1140931;-76
2023/05/07 13:23:00;;;;;;;3.67;2.20;;;;;;;14.39;76.93;101724.47;4899230;59;1138803;-76
2023/05/07 13:28:05;;;;;;;12.85;6.87;;;;;;;14.37;76.97;101728.56;4919198;58;1138869;-78
2023/05/07 13:33:11;;;;;;;6.53;3.92;;;;;;;14.40;72.59;101725.72;4991231;57;1141059;-78
2023/05/07 13:38:17;;;;;;;3.40;2.70;;;;;;;14.53;69.76;101722.98;5006102;56;1138966;-74
2023/05/07 13:43:23;;;;;;;3.42;2.62;;;;;;;14.66;69.00;101714.95;4999185;58;1138967;-76
2023/05/07 13:48:29;;;;;;;3.70;2.13;;;;;;;14.70;67.67;101723.05;4948281;57;1138800;-80
2023/05/07 13:53:35;;;;;;;3.60;2.47;;;;;;;14.80;71.59;101718.73;4909691;58;1138734;-81
2023/05/07 13:58:41;;;;;;;5.40;2.20;;;;;;;14.78;69.11;101722.00;4913110;58;1138814;-76
2023/05/07 14:03:46;;;;;;;1.80;1.70;;;;;;;14.76;71.21;101715.45;4914285;58;1138788;-79
2023/05/07 14:08:52;;;;;;;3.53;2.10;;;;;;;14.78;73.09;101712.67;4899022;58;1138807;-76
2023/05/07 14:13:58;;;;;;;4.87;2.43;;;;;;;14.73;70.74;101719.67;4899677;59;1138849;-79
2023/05/07 14:19:04;;;;;;;2.87;1.80;;;;;;;14.91;72.23;101710.77;4989313;57;1138772;-75
2023/05/07 14:24:10;;;;;;;2.58;2.15;;;;;;;14.82;70.28;101723.95;4893227;57;1138769;-79
2023/05/07 14:29:18;;;;;;;25.97;7.53;;;;;;;14.66;69.57;101710.95;4979312;56;1138712;-79
2023/05/07 14:34:22;;;;;;;4.60;2.25;;;;;;;14.77;69.25;101713.64;4998844;56;1140859;-76
2023/05/07 14:39:29;;;;;;;7.27;3.80;;;;;;;14.92;68.27;101706.29;4978221;56;1138869;-80
2023/05/07 14:44:36;;;;;;;7.20;2.50;;;;;;;15.17;69.33;101711.41;4948130;56;1138939;-78
2023/05/07 14:49:42;;;;;;;5.07;3.53;;;;;;;15.26;64.96;101713.38;4978985;57;1138967;-78
2023/05/07 14:54:47;;;;;;;7.10;3.87;;;;;;;15.21;66.08;101714.20;4998543;57;1138777;-76
2023/05/07 14:59:53;;;;;;;4.50;2.83;;;;;;;15.30;63.66;101723.28;4958671;56;1138675;-74
2023/05/07 15:05:00;;;;;;;13.80;5.03;;;;;;;15.15;64.13;101716.00;4956882;58;1138827;-78
2023/05/07 15:10:06;;;;;;;34.07;15.17;;;;;;;15.15;64.13;101716.00;4998597;57;1141064;-78
2023/05/07 15:15:12;;;;;;;31.76;11.62;;;;;;;15.10;61.36;101728.37;4978864;57;1143150;-79
2023/05/07 15:20:18;;;;;;;7.55;5.00;;;;;;;14.97;60.16;101734.77;4978527;57;1143008;-78
2023/05/07 15:25:24;;;;;;;9.90;5.37;;;;;;;14.85;62.62;101735.68;4998995;57;1138704;-74
2023/05/07 15:30:30;;;;;;;9.40;6.73;;;;;;;15.04;63.61;101734.64;4978948;57;1138661;-73
2023/05/07 15:35:36;;;;;;;9.20;5.90;;;;;;;15.06;60.79;101734.90;4935265;57;1138708;-76
2023/05/07 15:40:42;;;;;;;3.80;3.40;;;;;;;14.99;61.20;101736.80;4958869;57;1138918;-77
2023/05/07 15:45:48;;;;;;;4.20;3.30;;;;;;;15.00;59.75;101734.51;4986283;57;1138785;-75
2023/05/07 15:50:54;;;;;;;11.53;4.73;;;;;;;14.97;60.26;101731.59;4979574;58;1138859;-79
2023/05/07 15:55:59;;;;;;;7.50;4.35;;;;;;;15.03;62.06;101731.13;4981420;56;1140967;-78
2023/05/07 16:01:06;;;;;;;8.07;4.23;;;;;;;15.08;61.77;101734.30;4978800;56;1138678;-78
2023/05/07 16:06:11;;;;;;;5.80;3.97;;;;;;;15.01;57.75;101729.06;4966783;57;1138837;-77
2023/05/07 16:11:17;;;;;;;9.97;4.13;;;;;;;14.99;58.32;101732.80;4941865;56;1138798;-78
2023/05/07 16:16:25;;;;;;;4.20;2.50;;;;;;;14.95;56.82;101729.55;4992501;57;1139020;-81
2023/05/07 16:21:31;;;;;;;10.80;7.97;;;;;;;14.90;56.38;101730.86;4980158;57;1138898;-75
2023/05/07 16:26:37;;;;;;;9.00;5.10;;;;;;;14.95;55.77;101734.88;4980093;56;1141081;-77
2023/05/07 16:31:43;;;;;;;4.73;2.60;;;;;;;14.94;56.11;101737.18;4980399;57;1139305;-76
2023/05/07 16:36:48;;;;;;;11.27;4.07;;;;;;;14.92;58.33;101731.11;4999680;57;1138782;-78
2023/05/07 16:41:54;;;;;;;3.93;2.87;;;;;;;14.88;57.56;101737.63;4923638;57;1140763;-77
2023/05/07 16:47:00;;;;;;;4.17;3.43;;;;;;;14.86;57.81;101738.23;4980018;57;1138735;-80
2023/05/07 16:52:06;;;;;;;9.73;3.87;;;;;;;14.78;57.67;101734.83;4993190;57;1138819;-81
2023/05/07 16:57:12;;;;;;;25.43;14.40;;;;;;;14.69;57.03;101736.84;4941339;57;1138751;-77
2023/05/07 17:02:18;;;;;;;62.47;29.97;;;;;;;14.56;57.64;101739.22;4942238;57;1143008;-77
2023/05/07 17:07:25;;;;;;;45.90;20.05;;;;;;;14.52;58.38;101748.38;4957618;57;1142924;-80
2023/05/07 17:12:33;;;;;;;15.37;7.13;;;;;;;14.45;59.07;101752.00;4945572;57;1143004;-77
2023/05/07 17:17:40;;;;;;;6.70;4.30;;;;;;;14.43;60.17;101750.78;4941352;57;1140935;-79
2023/05/07 17:22:46;;;;;;;7.33;3.07;;;;;;;14.41;59.78;101751.86;4961884;57;1138686;-82
2023/05/07 17:27:52;;;;;;;8.10;3.37;;;;;;;14.28;59.59;101755.02;4999551;56;1138789;-77
2023/05/07 17:32:57;;;;;;;6.87;3.93;;;;;;;14.13;59.73;101760.13;4989458;56;1138743;-76
2023/05/07 17:38:03;;;;;;;10.27;4.60;;;;;;;14.04;60.88;101763.84;4992595;56;1138735;-79
2023/05/07 17:43:10;;;;;;;12.85;7.47;;;;;;;13.99;61.83;101769.97;5053546;56;1141346;-76
2023/05/07 17:48:16;;;;;;;11.20;6.12;;;;;;;13.99;61.52;101770.45;4994573;56;1140937;-79
2023/05/07 17:53:23;;;;;;;33.83;16.00;;;;;;;13.88;61.56;101771.23;4995676;56;1140859;-73
2023/05/07 17:58:29;;;;;;;60.77;31.33;;;;;;;13.85;62.61;101773.25;5012160;56;1143333;-74
2023/05/07 18:03:35;;;;;;;37.87;19.83;;;;;;;13.78;62.79;101774.62;4992979;56;1142992;-76
2023/05/07 18:08:40;;;;;;;49.90;25.13;;;;;;;13.72;63.56;101777.27;5008581;56;1142950;-74
2023/05/07 18:13:46;;;;;;;82.93;45.03;;;;;;;13.68;64.13;101782.42;5032692;56;1142921;-76
2023/05/07 18:18:52;;;;;;;58.90;28.50;;;;;;;13.64;64.42;101794.22;5048686;56;1142927;-74
2023/05/07 18:23:57;;;;;;;35.30;17.10;;;;;;;13.51;64.72;101787.59;4950544;57;1142849;-76
2023/05/07 18:29:03;;;;;;;95.90;48.23;;;;;;;13.43;65.09;101792.59;4946192;57;1142952;-73
2023/05/07 18:34:09;;;;;;;63.93;30.37;;;;;;;13.38;65.88;101802.69;4994296;56;1143399;-75
2023/05/07 18:39:15;;;;;;;42.90;21.70;;;;;;;13.35;67.62;101798.42;5000378;56;1143036;-80
2023/05/07 18:44:20;;;;;;;31.37;18.23;;;;;;;13.29;68.79;101804.66;4948062;57;1142929;-78
2023/05/07 18:49:26;;;;;;;30.65;16.32;;;;;;;13.14;69.49;101799.84;5022566;57;1142997;-77
2023/05/07 18:54:31;;;;;;;24.27;13.60;;;;;;;12.99;70.32;101810.17;4985043;57;1142901;-76
2023/05/07 18:59:37;;;;;;;55.33;23.80;;;;;;;12.87;71.25;101813.19;5031456;56;1142973;-75
2023/05/07 19:04:42;;;;;;;50.27;22.70;;;;;;;12.78;71.79;101826.23;5002159;56;1143060;-76
2023/05/07 19:09:48;;;;;;;47.07;22.27;;;;;;;12.64;72.78;101825.34;5061260;56;1143028;-75
2023/05/07 19:14:54;;;;;;;59.77;35.83;;;;;;;12.44;73.28;101839.04;4973481;56;1142806;-80
2023/05/07 19:20:00;;;;;;;49.03;25.47;;;;;;;12.24;74.14;101839.45;5025523;56;1143134;-79
2023/05/07 19:25:06;;;;;;;112.27;46.87;;;;;;;12.05;74.69;101850.86;4945632;57;1142845;-79
2023/05/07 19:30:12;;;;;;;126.60;51.87;;;;;;;11.88;75.39;101850.11;4906402;57;1144967;-77
2023/05/07 19:35:18;;;;;;;96.63;42.58;;;;;;;11.76;76.37;101856.64;4926035;57;1145192;-75
2023/05/07 19:40:25;;;;;;;59.18;26.23;;;;;;;11.61;76.65;101857.05;4950064;57;1143082;-78
2023/05/07 19:45:31;;;;;;;44.37;20.40;;;;;;;11.41;77.10;101861.39;5039934;56;1143229;-79
2023/05/07 19:50:37;;;;;;;51.40;22.27;;;;;;;11.31;78.10;101865.50;5042495;55;1143083;-76
2023/05/07 19:55:42;;;;;;;97.90;44.80;;;;;;;11.19;78.60;101871.06;5036341;56;1143020;-78
2023/05/07 20:00:48;;;;;;;71.57;36.20;;;;;;;11.07;79.20;101881.05;5002675;56;1143054;-76
2023/05/07 20:05:54;;;;;;;68.23;36.17;;;;;;;10.96;79.68;101884.80;5007169;57;1142934;-82
2023/05/07 20:11:00;;;;;;;63.60;35.03;;;;;;;10.86;80.27;101887.09;5038822;56;1143123;-79
2023/05/07 20:16:06;;;;;;;36.97;22.03;;;;;;;10.75;80.87;101890.83;5079755;55;1142991;-80
2023/05/07 20:21:12;;;;;;;48.63;26.17;;;;;;;10.59;81.95;101900.09;5021869;56;1142921;-77
2023/05/07 20:26:18;;;;;;;27.22;13.93;;;;;;;10.44;82.42;101904.91;4933795;56;1143013;-78
2023/05/07 20:31:24;;;;;;;16.77;10.05;;;;;;;10.35;82.56;101910.71;4967397;57;1142859;-80
2023/05/07 20:36:30;;;;;;;17.05;10.68;;;;;;;10.31;82.92;101912.66;5007843;56;1142866;-75
2023/05/07 20:41:35;;;;;;;13.77;8.63;;;;;;;10.19;83.09;101915.50;5026828;56;1142927;-79
2023/05/07 20:46:42;;;;;;;19.67;9.27;;;;;;;10.24;83.53;101928.45;5009544;57;1140879;-77
2023/05/07 20:51:48;;;;;;;15.73;10.03;;;;;;;10.22;83.59;101929.03;4969423;57;1141020;-77
2023/05/07 20:56:55;;;;;;;24.07;13.27;;;;;;;10.19;83.77;101935.34;5041217;56;1143107;-75
2023/05/07 21:02:02;;;;;;;29.73;14.53;;;;;;;9.94;83.46;101939.30;5042361;57;1143046;-77
2023/05/07 21:07:08;;;;;;;27.80;15.33;;;;;;;9.68;83.80;101947.27;5062436;56;1138674;-79
2023/05/07 21:12:14;;;;;;;30.63;15.17;;;;;;;9.61;85.15;101952.02;4950483;56;1138809;-77
2023/05/07 21:17:19;;;;;;;31.37;14.03;;;;;;;9.67;85.88;101951.69;4959307;57;1140960;-79
2023/05/07 21:22:25;;;;;;;35.55;16.65;;;;;;;9.78;86.70;101955.09;5027614;57;1140868;-76
2023/05/07 21:27:31;;;;;;;50.85;24.35;;;;;;;9.89;87.28;101964.67;5007934;57;1140982;-77
2023/05/07 21:32:36;;;;;;;57.17;26.40;;;;;;;9.96;87.31;101969.15;5007540;56;1141059;-77
2023/05/07 21:37:42;;;;;;;38.07;17.93;;;;;;;9.95;86.87;101969.61;4999091;57;1140885;-79
2023/05/07 21:42:48;;;;;;;32.47;14.73;;;;;;;9.93;87.04;101973.30;4987866;57;1141121;-78
2023/05/07 21:47:53;;;;;;;21.87;11.07;;;;;;;9.84;86.78;101970.64;4998921;57;1140864;-77
2023/05/07 21:52:59;;;;;;;25.05;11.70;;;;;;;9.68;86.77;101964.43;4998357;57;1141133;-75
2023/05/07 21:58:05;;;;;;;17.90;9.07;;;;;;;9.60;86.72;101982.00;4887565;58;1140910;-78
2023/05/07 22:03:10;;;;;;;24.20;10.40;;;;;;;9.46;87.12;101981.84;4872664;58;1138941;-78
2023/05/07 22:08:16;;;;;;;14.30;8.70;;;;;;;9.35;87.62;101988.09;4874635;57;1139100;-77
2023/05/07 22:13:21;;;;;;;21.50;9.68;;;;;;;9.23;87.67;101996.16;5019101;57;1136784;-80
2023/05/07 22:18:27;;;;;;;12.60;7.08;;;;;;;9.15;88.13;101996.55;4999650;57;1136662;-78
2023/05/07 22:23:33;;;;;;;8.48;4.97;;;;;;;9.13;88.13;101999.72;4999314;57;1138688;-79
2023/05/07 22:28:38;;;;;;;21.57;7.50;;;;;;;9.17;88.49;101999.94;5019138;57;1136679;-80
2023/05/07 22:33:44;;;;;;;12.93;7.63;;;;;;;9.19;88.85;102003.83;4999662;57;1138808;-79
2023/05/07 22:38:49;;;;;;;12.93;5.90;;;;;;;9.12;88.92;102001.96;5036773;56;1138715;-79
2023/05/07 22:43:55;;;;;;;18.80;8.23;;;;;;;9.05;88.37;102007.59;5061723;56;1138793;-76
2023/05/07 22:49:01;;;;;;;10.60;5.90;;;;;;;8.92;88.84;102005.14;5042502;57;1138728;-77
2023/05/07 22:54:07;;;;;;;8.40;5.90;;;;;;;8.86;89.03;102005.45;4987742;56;1138878;-78
2023/05/07 22:59:13;;;;;;;13.97;6.90;;;;;;;8.73;88.73;102001.17;4976370;57;1134640;-77